Terminal Aerodrome Forecast
Issued by NWS

Home | Current Version | Previous Version | Text Only | Print | Product List | Glossary On
Versions: 1 2 3 4 5 6 7 8 9 10 11 12 13
000
FTUS46 KPDT 140000 AAA
TAFPSC
TAF AMD
KPSC 140017Z 1400/1424 34010KT P6SM -SHRA SCT050 OVC090
      TEMPO 1401/1405 21015G25KT SHRA BKN050
     FM140500 17009KT P6SM -SHRA OVC120
     FM140900 VRB06KT P6SM SCT120 BKN150
     FM142100 32005KT P6SM FEW150=

USA.gov is the U.S. government's official web portal to all federal, state and local government web resources and services.